Time;durP1;ratioP1;P1;durP2;ratioP2;P2;SDS_P1;SDS_P2;PMS_P1;PMS_P2;Temp;Humidity;BMP_temperature;BMP_pressure;BME280_temperature;BME280_humidity;BME280_pressure;Samples;Min_cycle;Max_cycle;Signal;HPM_P1;HPM_P2
2023/01/19 00:00:30;;;;;;;17.02;10.82;;;;;;;3.62;74.57;98136.97;4990473;28;20082;-78
2023/01/19 00:02:56;;;;;;;15.18;10.55;;;;;;;3.60;74.52;98129.28;4990810;28;20073;-78
2023/01/19 00:05:22;;;;;;;14.60;10.80;;;;;;;3.61;74.55;98136.16;4973600;28;20140;-78
2023/01/19 00:07:49;;;;;;;14.80;10.45;;;;;;;3.61;74.62;98119.69;4990704;28;20079;-78
2023/01/19 00:10:16;;;;;;;14.80;10.07;;;;;;;3.61;74.53;98127.50;4990664;28;20112;-78
2023/01/19 00:12:42;;;;;;;16.42;10.07;;;;;;;3.61;74.54;98125.75;4990699;28;20066;-78
2023/01/19 00:15:09;;;;;;;13.40;9.55;;;;;;;3.63;74.83;98118.69;4990787;28;20213;-78
2023/01/19 00:17:35;;;;;;;16.42;10.32;;;;;;;3.64;75.02;98129.94;4990393;28;20085;-78
2023/01/19 00:20:02;;;;;;;22.27;10.75;;;;;;;3.63;74.80;98139.50;4990814;28;20110;-78
2023/01/19 00:22:29;;;;;;;15.82;10.63;;;;;;;3.64;74.83;98132.53;4990839;28;20153;-78
2023/01/19 00:24:55;;;;;;;20.08;11.23;;;;;;;3.64;74.39;98132.53;4990534;28;20058;-77
2023/01/19 00:27:22;;;;;;;19.38;11.63;;;;;;;3.63;74.71;98138.69;4990486;28;20513;-78
2023/01/19 00:29:48;;;;;;;17.10;10.93;;;;;;;3.62;74.92;98129.16;4973332;28;20124;-77
2023/01/19 00:32:16;;;;;;;14.80;10.35;;;;;;;3.63;74.82;98134.28;4990538;28;20635;-77
2023/01/19 00:34:48;;;;;;;17.23;11.02;;;;;;;3.64;75.06;98133.41;4990591;28;20057;-78
2023/01/19 00:37:15;;;;;;;16.25;10.27;;;;;;;3.65;74.86;98132.47;4990296;28;20536;-78
2023/01/19 00:39:42;;;;;;;17.65;11.43;;;;;;;3.66;74.76;98130.69;4990345;28;20062;-77
2023/01/19 00:44:56;;;;;;;16.92;11.30;;;;;;;3.67;74.81;98134.13;4990211;28;20477;-78
2023/01/19 00:47:23;;;;;;;16.83;11.00;;;;;;;3.67;75.04;98148.00;4990515;28;20113;-78
2023/01/19 00:49:50;;;;;;;16.00;11.45;;;;;;;3.67;74.80;98145.41;4972913;28;20074;-78
2023/01/19 00:52:16;;;;;;;19.65;11.00;;;;;;;3.68;74.88;98128.00;4990368;28;20090;-78
2023/01/19 00:54:42;;;;;;;18.88;11.25;;;;;;;3.69;74.78;98142.69;4990182;28;20132;-78
2023/01/19 00:57:09;;;;;;;20.55;12.93;;;;;;;3.68;74.65;98144.47;4990398;28;20058;-78
2023/01/19 00:59:35;;;;;;;22.70;12.35;;;;;;;3.71;75.24;98140.84;4990209;28;20420;-78
2023/01/19 01:02:01;;;;;;;15.70;11.38;;;;;;;3.70;74.90;98149.59;4990024;28;20136;-78
2023/01/19 01:04:29;;;;;;;19.55;12.10;;;;;;;3.69;74.62;98143.53;4990114;28;20065;-78
2023/01/19 01:06:55;;;;;;;19.25;12.57;;;;;;;3.69;75.10;98138.34;4993430;28;20116;-78
2023/01/19 01:09:22;;;;;;;18.13;12.40;;;;;;;3.69;75.10;98146.13;4993874;28;20089;-78
2023/01/19 01:11:49;;;;;;;18.65;11.75;;;;;;;3.70;75.02;98134.78;4993980;28;20497;-78
2023/01/19 01:14:16;;;;;;;18.33;12.18;;;;;;;3.70;74.66;98133.97;4993540;28;20069;-78
2023/01/19 01:16:42;;;;;;;21.02;12.80;;;;;;;3.68;74.79;98151.41;4976366;28;20137;-77
2023/01/19 01:19:09;;;;;;;19.70;13.38;;;;;;;3.68;75.14;98152.28;4993469;28;20105;-77
2023/01/19 01:21:36;;;;;;;19.83;13.13;;;;;;;3.67;74.96;98145.41;4994312;28;20132;-78
2023/01/19 01:24:03;;;;;;;18.45;13.27;;;;;;;3.67;75.07;98148.00;4993636;28;20054;-78
2023/01/19 01:26:29;;;;;;;19.88;12.95;;;;;;;3.66;74.76;98148.91;4993675;28;20109;-78
2023/01/19 01:28:55;;;;;;;21.55;14.38;;;;;;;3.67;75.25;98155.81;4993335;28;20121;-78
2023/01/19 01:31:22;;;;;;;21.75;14.10;;;;;;;3.68;75.27;98156.63;4993668;28;20081;-77
2023/01/19 01:33:48;;;;;;;21.33;13.70;;;;;;;3.68;75.46;98154.88;4993548;28;20060;-77
2023/01/19 01:36:15;;;;;;;19.95;13.35;;;;;;;3.68;75.09;98162.69;4993406;28;20085;-77
2023/01/19 01:38:41;;;;;;;20.02;14.57;;;;;;;3.68;74.98;98160.06;4993026;28;20120;-77
2023/01/19 01:41:08;;;;;;;18.15;13.30;;;;;;;3.69;75.57;98159.16;4993431;28;20480;-77
2023/01/19 01:43:42;;;;;;;22.55;15.10;;;;;;;3.65;73.93;98152.44;4993456;28;20050;-77
2023/01/19 01:46:09;;;;;;;21.50;14.15;;;;;;;3.69;75.31;98151.34;4993061;28;20089;-77
2023/01/19 01:48:38;;;;;;;20.52;14.00;;;;;;;3.70;75.42;98154.78;4993156;28;20051;-78
2023/01/19 01:51:25;;;;;;;23.88;14.90;;;;;;;3.67;74.57;98150.59;4975788;28;20082;-78
2023/01/19 01:54:28;;;;;;;22.92;14.40;;;;;;;3.67;74.73;98149.75;4961612;28;20062;-78
2023/01/19 01:57:00;;;;;;;15.20;10.38;;;;;;;3.69;74.81;98158.28;4939466;28;20050;-77
2023/01/19 01:59:37;;;;;;;21.52;13.95;;;;;;;3.67;74.44;98148.00;4992741;28;20604;-77
2023/01/19 02:04:59;;;;;;;20.48;13.93;;;;;;;3.62;74.45;98150.00;4992778;28;20536;-77
2023/01/19 02:13:18;;;;;;;20.55;13.63;;;;;;;3.50;75.46;98154.09;4993032;28;20089;-78
2023/01/19 02:15:46;;;;;;;20.85;15.88;;;;;;;3.46;75.68;98148.22;4992528;28;20082;-78
2023/01/19 02:18:13;;;;;;;24.80;15.85;;;;;;;3.41;75.20;98144.19;4992357;28;20080;-78
2023/01/19 02:20:43;;;;;;;20.30;15.43;;;;;;;3.37;75.75;98153.94;4992772;28;20137;-78
2023/01/19 02:23:18;;;;;;;22.13;15.75;;;;;;;3.34;75.94;98154.94;4992711;28;20480;-78
2023/01/19 02:25:48;;;;;;;21.00;15.45;;;;;;;3.35;76.18;98161.81;4992736;28;20097;-78
2023/01/19 02:28:14;;;;;;;22.17;15.48;;;;;;;3.33;76.79;98157.63;4992296;28;20047;-78
2023/01/19 02:30:41;;;;;;;24.08;16.02;;;;;;;3.34;76.77;98149.75;4638859;22;20136;-80
2023/01/19 02:33:08;;;;;;;27.05;16.63;;;;;;;3.32;76.70;98153.34;5032713;28;20111;-80
2023/01/19 02:35:37;;;;;;;20.70;15.38;;;;;;;3.31;76.17;98154.25;5032900;28;20057;-79
2023/01/19 02:38:05;;;;;;;27.85;16.85;;;;;;;3.29;75.94;98154.31;5032852;28;20167;-79
2023/01/19 02:40:32;;;;;;;22.10;16.52;;;;;;;3.28;76.61;98154.44;5015147;28;20140;-79
2023/01/19 02:43:01;;;;;;;23.98;16.20;;;;;;;3.26;76.57;98144.91;5032753;28;20275;-80
2023/01/19 02:45:29;;;;;;;24.90;16.25;;;;;;;3.26;76.50;98150.13;5032413;28;20053;-80
2023/01/19 02:47:56;;;;;;;25.40;16.15;;;;;;;3.24;76.63;98148.53;5032480;28;20516;-79
2023/01/19 02:50:48;;;;;;;27.75;16.52;;;;;;;3.20;76.33;98153.06;5032707;28;20080;-80
2023/01/19 02:53:36;;;;;;;27.23;16.38;;;;;;;3.20;76.54;98149.59;5015133;28;20505;-80
2023/01/19 02:56:23;;;;;;;25.77;17.98;;;;;;;3.19;76.12;98146.19;5031975;28;20500;-80
2023/01/19 02:59:05;;;;;;;27.25;17.70;;;;;;;3.19;76.27;98141.00;5032391;28;20107;-80
2023/01/19 03:02:08;;;;;;;22.98;16.40;;;;;;;3.19;76.39;98137.53;5032425;28;20165;-80
2023/01/19 03:04:35;;;;;;;;;;;;;;;3.22;76.24;98134.78;5032999;28;20065;-79
2023/01/19 03:07:13;;;;;;;22.15;14.93;;;;;;;3.22;76.38;98146.00;5014504;28;19991;-80
2023/01/19 03:09:51;;;;;;;26.33;17.55;;;;;;;3.22;76.81;98134.78;5032470;28;20111;-79
2023/01/19 03:12:39;;;;;;;28.95;18.73;;;;;;;3.21;77.16;98131.34;5032213;28;20057;-80
2023/01/19 03:15:31;;;;;;;26.25;16.60;;;;;;;3.19;77.12;98138.38;5032230;28;20065;-80
2023/01/19 03:18:00;;;;;;;25.02;16.48;;;;;;;3.21;77.82;98139.13;5031892;28;20064;-79
2023/01/19 03:20:27;;;;;;;25.92;17.50;;;;;;;3.22;77.75;98151.19;5032324;28;20056;-80
2023/01/19 03:23:00;;;;;;;25.80;17.35;;;;;;;3.23;77.76;98144.25;5032081;28;20050;-80
2023/01/19 03:25:33;;;;;;;27.20;18.08;;;;;;;3.23;77.72;98142.50;5032095;28;20111;-80
2023/01/19 03:28:00;;;;;;;25.50;17.30;;;;;;;3.25;77.74;98148.44;5013539;28;20565;-79
2023/01/19 03:30:36;;;;;;;25.52;16.85;;;;;;;3.24;77.85;98146.78;5031568;28;20673;-80
2023/01/19 03:33:10;;;;;;;26.83;18.35;;;;;;;3.24;77.58;98144.19;5031883;28;20131;-80
2023/01/19 03:35:42;;;;;;;25.00;18.08;;;;;;;3.24;77.82;98141.56;5031843;28;20057;-79
2023/01/19 03:38:13;;;;;;;25.50;17.75;;;;;;;3.26;77.54;98147.53;5031629;28;20414;-80
2023/01/19 03:40:40;;;;;;;24.27;16.25;;;;;;;3.30;78.13;98142.16;5014198;28;20054;-80
2023/01/19 03:43:07;;;;;;;23.05;16.17;;;;;;;3.31;78.35;98144.69;5031419;28;20064;-80
2023/01/19 03:45:37;;;;;;;22.83;16.42;;;;;;;3.30;77.87;98144.78;5031445;28;20115;-80
2023/01/19 03:48:05;;;;;;;27.88;18.33;;;;;;;3.32;78.14;98140.34;5013637;28;20053;-80
2023/01/19 03:50:32;;;;;;;31.17;19.23;;;;;;;3.32;78.27;98141.16;5031835;28;20049;-80
2023/01/19 03:53:10;;;;;;;25.88;18.05;;;;;;;3.32;77.16;98141.16;5031477;28;20071;-80
2023/01/19 03:55:39;;;;;;;30.35;19.50;;;;;;;3.34;77.89;98146.28;5013820;28;20059;-80
2023/01/19 03:58:06;;;;;;;26.88;18.20;;;;;;;3.33;78.22;98136.81;5031058;28;20084;-80
2023/01/19 04:00:33;;;;;;;28.05;18.52;;;;;;;3.34;77.80;98139.34;5031242;28;20133;-80
2023/01/19 04:02:59;;;;;;;30.17;20.25;;;;;;;3.34;77.90;98154.09;5031459;28;20072;-80
2023/01/19 04:05:26;;;;;;;25.35;18.33;;;;;;;3.35;78.08;98140.16;5031040;28;20072;-79
2023/01/19 04:07:53;;;;;;;26.92;18.05;;;;;;;3.37;78.01;98135.72;5031166;28;20060;-80
2023/01/19 04:10:21;;;;;;;27.80;18.00;;;;;;;3.37;78.09;98143.53;5014026;28;20057;-80
2023/01/19 04:12:48;;;;;;;28.25;17.83;;;;;;;3.38;78.33;98134.78;5031060;28;20053;-80
2023/01/19 04:15:14;;;;;;;29.08;18.98;;;;;;;3.37;78.52;98128.75;5030921;28;20053;-80
2023/01/19 04:17:41;;;;;;;28.63;17.95;;;;;;;3.38;78.22;98120.03;5030765;28;20621;-80
2023/01/19 04:20:08;;;;;;;23.88;17.75;;;;;;;3.39;78.18;98129.53;5031272;28;20093;-80
2023/01/19 04:22:34;;;;;;;30.67;18.95;;;;;;;3.41;78.46;98139.00;5031073;28;20060;-80
2023/01/19 04:25:01;;;;;;;27.77;19.13;;;;;;;3.41;77.98;98137.25;5030647;28;20111;-80
2023/01/19 04:27:28;;;;;;;29.17;19.00;;;;;;;3.42;78.25;98141.50;5030681;28;20049;-80
2023/01/19 04:29:54;;;;;;;25.95;17.77;;;;;;;3.44;77.94;98138.84;5012905;28;20057;-80
2023/01/19 04:32:21;;;;;;;28.05;19.08;;;;;;;3.43;78.29;98137.97;5031068;28;20061;-80
2023/01/19 04:34:47;;;;;;;22.75;17.10;;;;;;;3.45;77.97;98135.31;5030848;28;20061;-80
2023/01/19 04:37:14;;;;;;;25.92;17.33;;;;;;;3.44;78.03;98126.66;5030697;28;20057;-80
2023/01/19 04:39:40;;;;;;;29.10;19.05;;;;;;;3.45;78.02;98140.50;5030585;28;20059;-80
2023/01/19 04:42:07;;;;;;;23.58;16.95;;;;;;;3.45;78.17;98135.31;5012914;28;20418;-80
2023/01/19 04:44:33;;;;;;;23.33;16.90;;;;;;;3.44;77.77;98129.25;5030613;28;20120;-80
2023/01/19 04:47:00;;;;;;;25.38;17.13;;;;;;;3.45;78.09;98135.31;5030595;28;20469;-80
2023/01/19 04:49:27;;;;;;;25.70;19.33;;;;;;;3.43;78.11;98124.97;5030680;28;20108;-80
2023/01/19 04:51:54;;;;;;;27.02;17.60;;;;;;;3.42;77.65;98146.72;5030823;28;20053;-80
2023/01/19 04:54:21;;;;;;;27.90;18.42;;;;;;;3.39;77.91;98126.91;5012970;28;20064;-80
2023/01/19 04:56:47;;;;;;;25.65;17.60;;;;;;;3.39;77.89;98119.13;5030228;28;20093;-80
2023/01/19 04:59:14;;;;;;;26.42;17.95;;;;;;;3.40;77.72;98122.53;5030832;28;20056;-80
2023/01/19 05:01:40;;;;;;;24.40;18.13;;;;;;;3.39;78.15;98142.53;5030632;28;20058;-80
2023/01/19 05:04:08;;;;;;;25.25;17.40;;;;;;;3.39;77.78;98133.88;5030384;28;20096;-80
2023/01/19 05:06:34;;;;;;;26.50;18.88;;;;;;;3.40;78.02;98138.13;5030156;28;20064;-79
2023/01/19 05:09:01;;;;;;;24.88;18.45;;;;;;;3.38;77.92;98140.84;5030487;28;20053;-80
2023/01/19 05:11:27;;;;;;;28.98;19.35;;;;;;;3.37;77.76;98136.53;5030378;28;20057;-80
2023/01/19 05:13:54;;;;;;;27.77;18.85;;;;;;;3.36;77.96;98132.28;5029713;28;20059;-80
2023/01/19 05:16:20;;;;;;;26.55;18.05;;;;;;;3.37;78.05;98127.94;5028709;28;20140;-80
2023/01/19 05:18:47;;;;;;;28.50;19.85;;;;;;;3.37;77.79;98127.94;5012334;28;20380;-80
2023/01/19 05:21:13;;;;;;;26.27;18.33;;;;;;;3.36;77.78;98126.22;5030238;28;20075;-80
2023/01/19 05:23:40;;;;;;;25.08;18.00;;;;;;;3.35;77.68;98129.75;5030282;28;20045;-80
2023/01/19 05:26:07;;;;;;;25.77;18.05;;;;;;;3.33;77.93;98132.44;5029887;28;20057;-80
2023/01/19 05:28:36;;;;;;;26.30;18.23;;;;;;;3.34;77.71;98133.28;5030082;28;20061;-79
2023/01/19 05:31:03;;;;;;;25.02;17.90;;;;;;;3.33;78.14;98132.44;5029946;28;20537;-80
2023/01/19 05:33:30;;;;;;;24.15;17.55;;;;;;;3.32;77.88;98135.97;5030288;28;20477;-80
2023/01/19 05:35:57;;;;;;;23.77;17.23;;;;;;;3.33;77.88;98137.63;5030125;28;20061;-80
2023/01/19 05:38:23;;;;;;;23.02;17.13;;;;;;;3.33;77.74;98142.00;5012227;28;20490;-80
2023/01/19 05:41:01;;;;;;;24.80;16.48;;;;;;;3.32;77.60;98140.34;5028961;28;20053;-80
2023/01/19 05:43:28;;;;;;;22.02;15.45;;;;;;;3.30;78.01;98147.38;5011950;28;20473;-80
2023/01/19 05:45:54;;;;;;;22.17;15.80;;;;;;;3.30;77.40;98139.56;5020926;28;20075;-80
2023/01/19 05:48:21;;;;;;;21.40;14.60;;;;;;;3.27;77.57;98140.56;5011927;28;20049;-80
2023/01/19 05:50:48;;;;;;;19.30;14.95;;;;;;;3.28;77.84;98138.81;5029685;28;20057;-80
2023/01/19 05:53:15;;;;;;;16.02;12.80;;;;;;;3.27;78.01;98135.38;5033342;28;20076;-80
2023/01/19 05:55:42;;;;;;;18.23;13.80;;;;;;;3.28;78.33;98144.03;5033582;28;20107;-80
2023/01/19 05:58:09;;;;;;;18.60;13.25;;;;;;;3.28;78.28;98144.03;5033427;28;20053;-80
2023/01/19 06:00:36;;;;;;;15.65;12.57;;;;;;;3.28;78.05;98139.66;5033556;28;20165;-80
2023/01/19 06:03:02;;;;;;;17.05;12.95;;;;;;;3.27;78.21;98143.16;5013647;28;20136;-80
2023/01/19 06:05:30;;;;;;;18.88;13.55;;;;;;;3.26;78.04;98152.72;5031852;28;20143;-78
2023/01/19 06:07:56;;;;;;;16.85;13.02;;;;;;;3.25;77.82;98151.06;5024147;28;20072;-78
2023/01/19 06:10:23;;;;;;;19.08;12.40;;;;;;;3.25;78.12;98148.44;5025156;28;20053;-78
2023/01/19 06:12:51;;;;;;;16.73;12.65;;;;;;;3.24;77.99;98148.53;5033242;28;20452;-78
2023/01/19 06:15:18;;;;;;;15.93;11.75;;;;;;;3.23;78.02;98146.84;5032612;28;20054;-77
2023/01/19 06:17:44;;;;;;;14.73;11.38;;;;;;;3.22;78.32;98153.00;5032993;28;20789;-78
2023/01/19 06:20:12;;;;;;;14.88;11.27;;;;;;;3.22;78.27;98163.38;5014314;28;20061;-78
2023/01/19 06:22:39;;;;;;;12.70;10.13;;;;;;;3.21;78.27;98156.50;5025493;28;20068;-78
2023/01/19 06:25:06;;;;;;;13.43;9.52;;;;;;;3.21;78.09;98161.72;5032638;28;20072;-79
2023/01/19 06:27:33;;;;;;;13.82;10.43;;;;;;;3.20;78.48;98163.47;5029804;28;20717;-81
2023/01/19 06:29:59;;;;;;;12.00;9.23;;;;;;;3.21;78.00;98166.91;5032084;28;20088;-80
2023/01/19 06:32:26;;;;;;;11.30;8.80;;;;;;;3.21;78.26;98169.50;5032138;28;20076;-80
2023/01/19 06:34:52;;;;;;;11.50;9.05;;;;;;;3.21;77.94;98172.13;5032948;28;20145;-80
2023/01/19 06:37:20;;;;;;;10.75;8.48;;;;;;;3.20;78.39;98167.81;5032824;28;20071;-80
2023/01/19 06:39:46;;;;;;;10.77;8.93;;;;;;;3.19;78.14;98172.19;5032989;28;20053;-80
2023/01/19 06:42:13;;;;;;;10.55;8.82;;;;;;;3.19;77.65;98177.38;5032678;28;20096;-79
2023/01/19 06:44:46;;;;;;;10.15;8.85;;;;;;;3.18;77.94;98172.25;5032697;28;20409;-79
2023/01/19 06:47:14;;;;;;;10.05;8.40;;;;;;;3.16;77.79;98185.34;5014789;28;20061;-80
2023/01/19 06:49:42;;;;;;;8.13;6.72;;;;;;;3.16;77.52;98181.88;5015117;28;20468;-80
2023/01/19 06:52:10;;;;;;;9.70;8.07;;;;;;;3.13;78.25;98186.34;5031401;28;20068;-80
2023/01/19 06:54:36;;;;;;;10.10;8.63;;;;;;;3.11;77.81;98185.56;5024445;28;20053;-80
2023/01/19 06:57:03;;;;;;;10.27;8.07;;;;;;;3.11;77.84;98185.56;5031851;28;20069;-80
2023/01/19 06:59:30;;;;;;;9.93;7.55;;;;;;;3.11;78.07;98189.94;5032294;28;20108;-80
2023/01/19 07:01:57;;;;;;;9.68;7.47;;;;;;;3.10;78.33;98201.28;5032431;28;20096;-80
2023/01/19 07:04:25;;;;;;;8.73;7.43;;;;;;;3.09;78.09;98199.56;5031371;28;20103;-80
2023/01/19 07:06:52;;;;;;;9.38;7.53;;;;;;;3.08;78.51;98205.69;5032003;28;20720;-81
2023/01/19 07:09:19;;;;;;;9.10;7.57;;;;;;;3.07;78.29;98207.44;5032255;28;20095;-80
2023/01/19 07:11:47;;;;;;;11.80;7.90;;;;;;;3.06;78.16;98208.38;5032130;28;20061;-80
2023/01/19 07:14:14;;;;;;;9.18;7.32;;;;;;;3.07;78.37;98212.63;5032033;28;20045;-80
2023/01/19 07:16:41;;;;;;;7.80;6.63;;;;;;;3.07;77.93;98219.63;5014484;28;20062;-80
2023/01/19 07:19:09;;;;;;;8.50;7.25;;;;;;;3.06;78.47;98220.53;5032028;28;20060;-80
2023/01/19 07:21:36;;;;;;;8.68;6.72;;;;;;;3.05;78.44;98229.25;5031964;28;20057;-80
2023/01/19 07:24:02;;;;;;;8.50;6.95;;;;;;;3.04;78.19;98227.56;5031609;28;20057;-80
2023/01/19 07:26:29;;;;;;;10.65;6.68;;;;;;;3.03;77.95;98224.13;5031281;28;20486;-80
2023/01/19 07:28:56;;;;;;;6.70;5.55;;;;;;;3.03;77.94;98229.31;5030323;28;20061;-80
2023/01/19 07:31:22;;;;;;;6.25;5.38;;;;;;;3.03;78.26;98244.09;5012673;28;20064;-80
2023/01/19 07:33:49;;;;;;;6.63;5.22;;;;;;;3.02;78.15;98243.25;5030392;28;20057;-78
2023/01/19 07:36:16;;;;;;;7.43;6.10;;;;;;;3.02;78.59;98245.84;5030587;28;20098;-79
2023/01/19 07:38:42;;;;;;;6.53;5.47;;;;;;;3.04;78.28;98263.97;5030418;28;20477;-79
2023/01/19 07:41:10;;;;;;;7.38;6.15;;;;;;;3.04;78.62;98257.00;5030520;28;20049;-79
2023/01/19 07:43:36;;;;;;;6.70;5.70;;;;;;;3.07;78.75;98266.41;5031083;28;20072;-78
2023/01/19 07:46:04;;;;;;;7.93;6.50;;;;;;;3.10;78.36;98271.47;5031517;28;20054;-78
2023/01/19 07:48:31;;;;;;;6.72;5.55;;;;;;;3.11;78.21;98266.16;5031408;28;20088;-78
2023/01/19 07:51:00;;;;;;;6.45;5.22;;;;;;;3.14;78.36;98280.78;5031549;28;20061;-78
2023/01/19 07:53:26;;;;;;;8.02;5.50;;;;;;;3.18;78.41;98289.28;5031403;28;20068;-79
2023/01/19 07:55:55;;;;;;;5.68;4.95;;;;;;;3.19;78.80;98296.16;5031163;28;20140;-79
2023/01/19 07:58:25;;;;;;;5.78;4.70;;;;;;;3.22;78.61;98296.81;5013755;28;20081;-79
2023/01/19 08:00:52;;;;;;;5.93;4.45;;;;;;;3.27;78.58;98304.41;5031287;28;20092;-79
2023/01/19 08:03:19;;;;;;;5.95;4.82;;;;;;;3.29;79.00;98299.97;5031309;28;20057;-79
2023/01/19 08:05:49;;;;;;;5.43;4.60;;;;;;;3.32;78.54;98312.00;5031352;28;20093;-79
2023/01/19 08:08:16;;;;;;;6.80;5.40;;;;;;;3.36;79.00;98319.53;5031133;28;20127;-79
2023/01/19 08:10:42;;;;;;;11.23;6.63;;;;;;;3.39;78.75;98316.78;5031423;28;20057;-79
2023/01/19 08:13:09;;;;;;;9.18;7.40;;;;;;;3.42;79.01;98320.16;5030888;28;20502;-79
2023/01/19 08:15:36;;;;;;;11.07;6.93;;;;;;;3.46;78.91;98324.28;5030770;28;20057;-78
2023/01/19 08:18:05;;;;;;;11.98;7.40;;;;;;;3.48;78.82;98333.69;5030992;28;20049;-79
2023/01/19 08:20:31;;;;;;;15.02;7.72;;;;;;;3.52;79.11;98339.59;5030914;28;20052;-79
2023/01/19 08:23:01;;;;;;;14.07;9.23;;;;;;;3.56;79.24;98341.13;5030796;28;20053;-79
2023/01/19 08:25:41;;;;;;;12.65;8.60;;;;;;;3.57;78.29;98342.78;5013586;28;20057;-79
2023/01/19 08:28:08;;;;;;;13.65;8.25;;;;;;;3.64;78.92;98348.53;5030742;28;20144;-79
2023/01/19 08:33:35;;;;;;;16.83;7.97;;;;;;;3.70;79.22;98360.38;5052624;23;20057;-79
2023/01/19 08:36:01;;;;;;;13.07;8.07;;;;;;;3.72;78.94;98361.13;5012403;28;20065;-79
2023/01/19 08:38:28;;;;;;;8.63;6.70;;;;;;;3.74;79.28;98365.34;5029964;28;20053;-79
2023/01/19 08:40:54;;;;;;;11.70;7.55;;;;;;;3.77;79.07;98367.78;5030360;28;20057;-80
2023/01/19 08:43:20;;;;;;;11.40;7.30;;;;;;;3.82;78.98;98374.53;5034416;28;20061;-79
2023/01/19 08:45:52;;;;;;;12.63;7.60;;;;;;;3.84;78.67;98377.88;5035858;28;20076;-79
2023/01/19 08:48:22;;;;;;;14.00;7.40;;;;;;;3.87;78.79;98385.53;5035292;28;20208;-79
2023/01/19 08:50:50;;;;;;;13.38;6.75;;;;;;;3.90;78.93;98391.41;5032210;28;20180;-80
2023/01/19 08:53:19;;;;;;;11.60;6.60;;;;;;;3.93;78.83;98389.59;5029883;28;20393;-80
2023/01/19 08:55:46;;;;;;;14.13;6.53;;;;;;;3.95;79.09;98382.53;5030054;28;20443;-79
2023/01/19 08:58:12;;;;;;;12.75;6.90;;;;;;;3.98;78.97;98393.63;5012389;28;20328;-80
2023/01/19 09:00:39;;;;;;;13.63;6.50;;;;;;;4.00;79.46;98391.78;5029602;28;20049;-80
2023/01/19 09:03:07;;;;;;;15.05;6.72;;;;;;;4.03;79.48;98399.44;5029736;28;20080;-80
2023/01/19 09:05:37;;;;;;;12.10;6.43;;;;;;;4.06;79.41;98403.66;5029630;28;20152;-80
2023/01/19 09:08:07;;;;;;;14.75;5.78;;;;;;;4.10;79.43;98402.56;5012240;28;20103;-81
2023/01/19 09:10:36;;;;;;;10.48;5.00;;;;;;;4.14;79.46;98398.88;5029677;28;20064;-80
2023/01/19 09:13:04;;;;;;;12.63;5.45;;;;;;;4.17;79.75;98413.50;5029588;28;20557;-80
2023/01/19 09:15:32;;;;;;;11.07;4.70;;;;;;;4.22;79.70;98421.91;5012134;28;20127;-80
2023/01/19 09:17:59;;;;;;;11.88;4.30;;;;;;;4.26;79.80;98431.25;5029431;28;20120;-81
2023/01/19 09:20:29;;;;;;;8.38;4.63;;;;;;;4.28;79.57;98425.97;5029472;28;20050;-80
2023/01/19 09:22:57;;;;;;;10.68;4.85;;;;;;;4.32;79.27;98437.06;5012331;28;20064;-80
2023/01/19 09:25:24;;;;;;;10.90;4.57;;;;;;;4.34;79.38;98445.66;5011831;28;20430;-81
2023/01/19 09:27:50;;;;;;;12.13;4.05;;;;;;;4.36;79.13;98447.25;5032744;28;20073;-80
2023/01/19 09:30:18;;;;;;;9.60;4.00;;;;;;;4.37;78.81;98451.53;5016017;28;20458;-80
2023/01/19 09:32:44;;;;;;;6.18;3.20;;;;;;;4.40;78.66;98456.59;5033088;28;20660;-80
2023/01/19 09:35:11;;;;;;;8.23;3.22;;;;;;;4.40;78.79;98458.34;5033338;28;20196;-81
2023/01/19 09:37:38;;;;;;;9.45;3.10;;;;;;;4.39;78.76;98461.88;5015658;28;20053;-80
2023/01/19 09:40:05;;;;;;;11.45;4.28;;;;;;;4.38;78.87;98468.84;5015569;28;20061;-80
2023/01/19 09:42:42;;;;;;;8.15;4.43;;;;;;;4.38;78.36;98471.44;5033155;28;20065;-81
2023/01/19 09:45:38;;;;;;;10.23;3.50;;;;;;;4.38;78.42;98473.22;5033050;28;20065;-80
2023/01/19 09:48:25;;;;;;;11.63;4.28;;;;;;;4.42;78.33;98487.78;5015790;28;20081;-80
2023/01/19 09:50:54;;;;;;;17.77;4.82;;;;;;;4.48;79.24;98490.03;5033068;28;20049;-80
2023/01/19 09:53:46;;;;;;;9.55;4.70;;;;;;;4.48;78.73;98490.03;5032943;28;20476;-80
2023/01/19 09:56:14;;;;;;;11.52;4.13;;;;;;;4.53;79.11;98493.25;5033018;28;20112;-80
2023/01/19 09:58:41;;;;;;;12.25;3.97;;;;;;;4.55;79.14;98504.44;5033135;28;20111;-80
2023/01/19 10:01:14;;;;;;;11.40;4.43;;;;;;;4.54;79.05;98502.78;5015035;28;20049;-81
2023/01/19 10:03:41;;;;;;;13.05;3.92;;;;;;;4.59;79.42;98499.91;5032816;28;20068;-81
2023/01/19 10:06:12;;;;;;;7.43;3.70;;;;;;;4.62;79.20;98511.94;5032638;28;20061;-80
2023/01/19 10:09:04;;;;;;;9.38;4.20;;;;;;;4.63;79.04;98514.47;5032523;28;20482;-80
2023/01/19 10:11:49;;;;;;;14.52;3.85;;;;;;;4.66;78.63;98513.44;5032346;28;20058;-80
2023/01/19 10:14:33;;;;;;;14.32;4.65;;;;;;;4.71;79.06;98516.66;5032533;28;20109;-80
2023/01/19 10:17:05;;;;;;;15.55;5.22;;;;;;;4.74;78.93;98513.88;5014839;28;20053;-80
2023/01/19 10:19:39;;;;;;;11.02;4.30;;;;;;;4.79;79.15;98516.28;5032485;28;20093;-80
2023/01/19 10:22:32;;;;;;;11.77;4.15;;;;;;;4.80;78.78;98520.56;5032267;28;20507;-80
2023/01/19 10:25:04;;;;;;;14.02;4.90;;;;;;;4.87;79.39;98523.66;5028759;28;20117;-81
2023/01/19 10:27:33;;;;;;;13.38;4.10;;;;;;;4.89;79.66;98527.88;5032387;28;20085;-80
2023/01/19 10:30:00;;;;;;;11.35;3.88;;;;;;;4.94;79.78;98528.47;5032336;28;20045;-80
2023/01/19 10:32:32;;;;;;;15.52;5.15;;;;;;;4.95;79.43;98530.19;5032153;28;20107;-80
2023/01/19 10:34:59;;;;;;;16.95;4.85;;;;;;;5.00;79.85;98523.84;5032071;28;20156;-80
2023/01/19 10:37:29;;;;;;;13.32;4.63;;;;;;;5.05;79.85;98532.28;5032328;28;20418;-81
2023/01/19 10:40:08;;;;;;;14.13;4.10;;;;;;;5.04;78.78;98538.41;5014610;28;20049;-81
2023/01/19 10:42:36;;;;;;;13.38;4.13;;;;;;;5.07;79.23;98533.03;5032195;28;20139;-80
2023/01/19 10:45:03;;;;;;;11.77;3.90;;;;;;;5.11;79.15;98536.31;5031939;28;20054;-80
2023/01/19 10:47:35;;;;;;;16.65;4.30;;;;;;;5.08;78.33;98540.78;5031751;28;20057;-81
2023/01/19 10:50:22;;;;;;;18.10;4.35;;;;;;;5.07;77.68;98543.47;5032171;28;20444;-81
2023/01/19 10:52:55;;;;;;;13.13;4.63;;;;;;;5.09;78.70;98547.66;5031879;28;20562;-80
2023/01/19 10:55:28;;;;;;;15.40;4.38;;;;;;;5.13;78.92;98550.13;5031760;28;20099;-80
2023/01/19 10:57:56;;;;;;;12.98;4.18;;;;;;;5.15;79.42;98553.47;5031496;28;20115;-80
2023/01/19 11:00:41;;;;;;;20.10;4.40;;;;;;;5.17;78.47;98551.63;5031685;28;20049;-80
2023/01/19 11:03:28;;;;;;;14.93;3.95;;;;;;;5.19;78.15;98557.59;5031994;28;20061;-80
2023/01/19 11:06:18;;;;;;;12.45;3.83;;;;;;;5.20;78.00;98560.13;5031465;28;20056;-80
2023/01/19 11:08:50;;;;;;;12.93;3.95;;;;;;;5.25;78.81;98561.66;5014113;28;20119;-80
2023/01/19 11:11:18;;;;;;;19.73;4.32;;;;;;;5.26;78.90;98558.97;5014003;28;20466;-81
2023/01/19 11:14:11;;;;;;;14.40;3.75;;;;;;;5.22;77.59;98560.91;5031535;28;20112;-81
2023/01/19 11:16:38;;;;;;;17.42;3.83;;;;;;;5.26;78.72;98569.41;5031572;28;20480;-80
2023/01/19 11:19:16;;;;;;;17.15;4.32;;;;;;;5.28;78.93;98567.56;5031070;28;20054;-79
2023/01/19 11:21:42;;;;;;;16.42;4.25;;;;;;;5.30;79.26;98575.28;5013654;28;20462;-79
2023/01/19 11:24:13;;;;;;;17.10;3.85;;;;;;;5.30;79.17;98565.69;5013801;28;20099;-80
2023/01/19 11:26:46;;;;;;;15.38;3.95;;;;;;;5.34;79.17;98561.13;5013514;28;20064;-79
2023/01/19 11:29:21;;;;;;;11.40;3.35;;;;;;;5.40;79.71;98565.19;5013452;28;20054;-80
2023/01/19 11:31:48;;;;;;;15.23;4.28;;;;;;;5.50;81.00;98566.38;5030799;28;20393;-80
2023/01/19 11:34:32;;;;;;;18.00;4.30;;;;;;;5.58;79.15;98569.38;5031344;28;20065;-80
2023/01/19 11:37:03;;;;;;;14.55;3.83;;;;;;;5.71;80.82;98561.72;5030870;28;20503;-80
2023/01/19 11:39:43;;;;;;;12.63;4.05;;;;;;;5.84;81.61;98567.06;5030854;28;20508;-80
2023/01/19 11:42:11;;;;;;;15.93;4.40;;;;;;;6.02;81.91;98561.72;5031021;28;20050;-80
2023/01/19 11:44:45;;;;;;;10.98;2.97;;;;;;;6.20;82.34;98565.09;5030965;28;20053;-80
2023/01/19 11:47:22;;;;;;;11.27;2.95;;;;;;;6.44;83.19;98563.75;5030630;28;20427;-80
2023/01/19 11:49:57;;;;;;;15.80;3.58;;;;;;;6.71;83.63;98566.50;5030331;28;20053;-80
2023/01/19 11:52:56;;;;;;;10.88;2.85;;;;;;;6.98;81.26;98572.72;5030789;28;20057;-80
2023/01/19 11:55:36;;;;;;;10.82;3.17;;;;;;;7.28;82.25;98567.38;5030625;28;20056;-80
2023/01/19 11:58:14;;;;;;;9.02;2.80;;;;;;;7.52;80.23;98572.00;5030636;28;20539;-79